Etusivu
METAR-TAF:

METAR-TAF

Lentoasemat :

Istanbul Atatürk, Turkki

Istanbul-Atatürkin kansainvälinen lentoasema

Leveyspiiri: 40-58N, Pituuspiiri: 028-49E, korkeus merenpinnasta: 48 m

Tämänhetkinen sää

Tämä raportti tehtiin 31 minuuttia sitten, kello 00.20 UTC
Tuuli 6 kn pohjoisesta
Lämpötila 9°C
Kosteus 57%
Ilmanpaine 1017 hPa
Näkyvyys 10 km tai enemmän
ei pilviä alle 1500 m:ssä eikä cumulonimbus-pilviä

METAR: LTBA 300020Z 36006KT CAVOK 09/01 Q1017 NOSIG RMK RWY17L 00000KT RWY05 36006KT RWY23 02006KT

Aika: 03:51 (00:51 UTC)

Sääennuste

Tämä raportti tehtiin 2 tuntia ja 11 minuuttia sitten, kello 22.40 UTC
Ennuste voimassa 30. päivästä klo 00 UTC - 31. päivään klo 06 UTC
Tuuli 9 kn pohjoisesta/koillisesta
Näkyvyys 10 km tai enemmän
ei pilviä alle 1500 m:ssä eikä cumulonimbus-pilviä
Todennäköisyys 30%
30. päivästä klo 03 UTC - 30. päivään klo 06 UTC
Näkyvyys: 4000 m
utua

TAF: LTBA 292240Z 3000/3106 03009KT CAVOK PROB30 3003/3006 4000 BR

Säähavainnot ja -ennusteet yli 4000 lentoasemalta (METAR- ja TAF-raportit).

Käytössä olevat sääasemat on merkitty karttaan keltaisilla ja punaisilla pisteillä.

Aseta hiiri pisteen päälle nähdäksesi sääaseman nimen.

Klikkaa sitten nähdäksesi säähavainnot ja -ennusteet.

Kartan vaihtaminen: klikkaa mustalla rastilla varustettuja vihreitä pisteitä, niin voit zoomata sisään; viivalla varustettua vihreää pistettä, niin voit zoomata ulos tai vihreitä nuolia, niin pääset viereisille kartoille.


METAR-TAF: